Terminal Aerodrome Forecast
Issued by NWS Quad Cities IA IL

Home | Current Version | Previous Version | Text Only | Print | Product List | Glossary On
Versions: 1 2 3 4 5 6 7 8 9 10 11 12 13 14 15 16 17 18 19 20 21 22 23 24 25 26 27 28 29
000
FTUS43 KDVN 241601 AAB
TAFDBQ
TAF AMD
KDBQ 241601Z 2416/2512 03020KT 1SM -FZRA BR OVC004
     FM241800 36014G20KT 4SM BR VCSH OVC007
     FM242100 34014G22KT 2SM -SN BR OVC005
     FM250500 32015G25KT 5SM -SN BR OVC010=

USA.gov is the U.S. government's official web portal to all federal, state and local government web resources and services.